createdAt,value
2018-06-24T00:00:59.241Z,101950.46
2018-06-24T00:03:28.193Z,101951.84
2018-06-24T00:05:57.137Z,101948.11
2018-06-24T00:08:26.120Z,101944.38
2018-06-24T00:10:55.082Z,101939.18
2018-06-24T00:13:24.026Z,101931.86
2018-06-24T00:15:52.951Z,101926.03
2018-06-24T00:18:28.522Z,101926.03
2018-06-24T00:20:57.440Z,101921.07
2018-06-24T00:23:28.207Z,101916.48
2018-06-24T00:25:57.534Z,101922.75
2018-06-24T00:28:26.493Z,101923.16
2018-06-24T00:30:55.567Z,101923.30
2018-06-24T00:33:24.481Z,101921.02
2018-06-24T00:35:53.432Z,101917.34
2018-06-24T00:38:22.392Z,101926.90
2018-06-24T00:40:51.383Z,101936.73
2018-06-24T00:43:20.220Z,101930.94
2018-06-24T00:45:49.190Z,101927.34
2018-06-24T00:48:18.018Z,101922.58
2018-06-24T00:50:46.872Z,101917.84
2018-06-24T00:53:15.842Z,101912.09
2018-06-24T00:55:44.756Z,101916.19
2018-06-24T00:58:13.624Z,101917.19
2018-06-24T01:00:42.502Z,101909.42
2018-06-24T01:03:11.405Z,101912.09
2018-06-24T01:05:40.364Z,101911.37
2018-06-24T01:08:09.189Z,101914.60
2018-06-24T01:10:38.064Z,101909.64
2018-06-24T01:13:07.055Z,101908.92
2018-06-24T01:15:36.037Z,101906.92
2018-06-24T01:18:04.956Z,101907.28
2018-06-24T01:20:33.902Z,101905.87
2018-06-24T01:23:03.045Z,101907.00
2018-06-24T01:25:31.956Z,101906.05
2018-06-24T01:28:00.876Z,101908.92
2018-06-24T01:30:29.844Z,101908.77
2018-06-24T01:32:58.748Z,101899.16
2018-06-24T01:35:27.657Z,101907.63
2018-06-24T01:37:56.571Z,101909.08
2018-06-24T01:40:25.483Z,101905.55
2018-06-24T01:42:54.392Z,101903.03
2018-06-24T01:45:23.281Z,101897.20
2018-06-24T01:47:54.877Z,101892.73
2018-06-24T01:50:23.786Z,101896.09
2018-06-24T01:52:52.759Z,101896.80
2018-06-24T01:55:21.723Z,101894.65
2018-06-24T01:57:50.603Z,101897.69
2018-06-24T02:00:19.541Z,101897.72
2018-06-24T02:02:48.540Z,101896.69
2018-06-24T02:05:20.264Z,101893.82
2018-06-24T02:07:49.188Z,101893.28
2018-06-24T02:10:18.132Z,101889.23
2018-06-24T02:12:49.730Z,101893.11
2018-06-24T02:15:18.607Z,101895.02
2018-06-24T02:17:47.551Z,101886.34
2018-06-24T02:20:16.471Z,101885.68
2018-06-24T02:22:45.424Z,101887.80
2018-06-24T02:25:14.352Z,101881.21
2018-06-24T02:27:43.277Z,101876.95
2018-06-24T02:30:12.220Z,101878.27
2018-06-24T02:32:41.099Z,101875.06
2018-06-24T02:35:09.994Z,101874.98
2018-06-24T02:37:38.886Z,101875.56
2018-06-24T02:40:07.807Z,101871.47
2018-06-24T02:42:36.730Z,101875.67
2018-06-24T02:45:07.978Z,101874.44
2018-06-24T02:47:54.701Z,101869.75
2018-06-24T02:50:23.605Z,101878.16
2018-06-24T02:52:52.490Z,101879.15
2018-06-24T02:55:21.407Z,101881.27
2018-06-24T02:57:50.425Z,101882.24
2018-06-24T03:00:19.339Z,101873.47
2018-06-24T03:02:48.251Z,101877.73
2018-06-24T03:05:17.159Z,101878.24
2018-06-24T03:07:46.059Z,101874.28
2018-06-24T03:10:18.194Z,101874.08
2018-06-24T03:12:47.014Z,101876.56
2018-06-24T03:15:15.892Z,101876.44
2018-06-24T03:17:44.793Z,101882.45
2018-06-24T03:20:13.658Z,101878.98
2018-06-24T03:22:42.573Z,101881.16
2018-06-24T03:25:11.560Z,101884.48
2018-06-24T03:27:40.515Z,101872.97
2018-06-24T03:30:09.327Z,101876.00
2018-06-24T03:32:45.910Z,101878.34
2018-06-24T03:35:14.801Z,101883.22
2018-06-24T03:37:43.737Z,101885.98
2018-06-24T03:40:12.620Z,101883.70
2018-06-24T03:42:41.545Z,101882.08
2018-06-24T03:45:10.419Z,101886.53
2018-06-24T03:47:39.268Z,101883.08
2018-06-24T03:50:08.265Z,101883.67
2018-06-24T03:52:37.200Z,101888.05
2018-06-24T03:55:06.309Z,101882.11
2018-06-24T03:57:35.202Z,101886.06
2018-06-24T04:00:04.595Z,101885.69
2018-06-24T04:02:33.513Z,101886.41
2018-06-24T04:05:02.386Z,101883.02
2018-06-24T04:07:31.328Z,101889.43
2018-06-24T04:10:00.188Z,101892.66
2018-06-24T04:12:29.067Z,101885.38
2018-06-24T04:14:57.961Z,101894.72
2018-06-24T04:17:35.346Z,101907.06
2018-06-24T04:20:04.300Z,101907.30
2018-06-24T04:22:33.201Z,101909.76
2018-06-24T04:25:02.073Z,101911.55
2018-06-24T04:27:30.973Z,101911.65
2018-06-24T04:29:59.909Z,101915.61
2018-06-24T04:32:28.823Z,101917.77
2018-06-24T04:34:57.676Z,101918.55
2018-06-24T04:37:26.533Z,101909.87
2018-06-24T04:39:58.322Z,101921.22
2018-06-24T04:42:27.166Z,101922.88
2018-06-24T04:44:56.182Z,101920.11
2018-06-24T04:47:25.212Z,101923.77
2018-06-24T04:49:54.100Z,101924.22
2018-06-24T04:52:23.251Z,101921.78
2018-06-24T04:54:52.122Z,101921.70
2018-06-24T04:57:21.097Z,101913.83
2018-06-24T04:59:50.035Z,101918.48
2018-06-24T05:02:18.967Z,101914.11
2018-06-24T05:04:47.898Z,101921.22
2018-06-24T05:07:16.794Z,101916.93
2018-06-24T05:09:45.763Z,101921.53
2018-06-24T05:12:14.718Z,101922.58
2018-06-24T05:14:43.609Z,101926.84
2018-06-24T05:17:12.565Z,101933.54
2018-06-24T05:19:41.419Z,101924.51
2018-06-24T05:22:10.301Z,101929.30
2018-06-24T05:28:19.854Z,101930.97
2018-06-24T05:30:48.826Z,101928.14
2018-06-24T05:33:17.739Z,101929.31
2018-06-24T05:35:46.776Z,101927.12
2018-06-24T05:38:15.701Z,101926.48
2018-06-24T05:40:44.561Z,101933.08
2018-06-24T05:43:13.508Z,101934.38
2018-06-24T05:45:42.390Z,101938.18
2018-06-24T05:48:11.282Z,101933.83
2018-06-24T05:50:40.248Z,101934.95
2018-06-24T05:53:09.148Z,101937.50
2018-06-24T05:55:38.058Z,101934.26
2018-06-24T05:58:06.936Z,101938.08
2018-06-24T06:00:35.858Z,101936.74
2018-06-24T06:03:04.814Z,101936.39
2018-06-24T06:05:33.645Z,101935.79
2018-06-24T06:08:02.536Z,101941.55
2018-06-24T06:10:38.885Z,101940.55
2018-06-24T06:13:07.815Z,101934.47
2018-06-24T06:15:36.700Z,101944.51
2018-06-24T06:18:05.592Z,101945.47
2018-06-24T06:20:34.455Z,101941.61
2018-06-24T06:23:03.461Z,101943.91
2018-06-24T06:25:32.309Z,101937.80
2018-06-24T06:28:01.214Z,101948.70
2018-06-24T06:30:30.112Z,101945.31
2018-06-24T06:32:59.006Z,101946.91
2018-06-24T06:35:27.961Z,101946.25
2018-06-24T06:37:56.779Z,101949.28
2018-06-24T06:40:25.692Z,101952.73
2018-06-24T06:42:54.575Z,101961.78
2018-06-24T06:45:23.652Z,101951.18
2018-06-24T06:47:52.384Z,101956.92
2018-06-24T06:50:21.242Z,101956.58
2018-06-24T06:52:50.109Z,101951.84
2018-06-24T06:55:22.268Z,101954.31
2018-06-24T06:57:51.099Z,101951.56
2018-06-24T07:00:19.962Z,101961.52
2018-06-24T07:02:48.859Z,101956.84
2018-06-24T07:05:17.852Z,101955.95
2018-06-24T07:07:46.648Z,101959.61
2018-06-24T07:10:15.529Z,101959.36
2018-06-24T07:12:44.444Z,101953.79
2018-06-24T07:15:13.317Z,101952.73
2018-06-24T07:17:42.206Z,101960.34
2018-06-24T07:20:11.103Z,101958.55
2018-06-24T07:22:39.976Z,101953.16
2018-06-24T07:25:08.836Z,101958.98
2018-06-24T07:27:37.728Z,101961.67
2018-06-24T07:30:06.559Z,101952.73
2018-06-24T07:32:35.676Z,101950.85
2018-06-24T07:35:04.540Z,101946.92
2018-06-24T07:37:33.604Z,101945.68
2018-06-24T07:40:02.457Z,101953.30
2018-06-24T07:42:31.325Z,101950.34
2018-06-24T07:45:00.369Z,101955.99
2018-06-24T07:47:29.249Z,101955.75
2018-06-24T07:49:58.110Z,101958.66
2018-06-24T07:52:26.986Z,101954.22
2018-06-24T07:54:55.841Z,101951.38
2018-06-24T07:57:24.730Z,101951.53
2018-06-24T07:59:53.579Z,101953.06
2018-06-24T08:02:22.471Z,101954.47
2018-06-24T08:04:51.398Z,101958.66
2018-06-24T08:07:20.240Z,101963.64
2018-06-24T08:09:49.144Z,101960.06
2018-06-24T08:12:18.024Z,101961.59
2018-06-24T08:14:46.946Z,101966.25
2018-06-24T08:17:15.857Z,101957.15
2018-06-24T08:19:47.520Z,101961.52
2018-06-24T08:22:16.371Z,101958.15
2018-06-24T08:24:45.256Z,101959.94
2018-06-24T08:27:14.345Z,101958.75
2018-06-24T08:29:43.265Z,101956.17
2018-06-24T08:32:12.159Z,101953.94
2018-06-24T08:34:41.071Z,101951.87
2018-06-24T08:37:10.050Z,101957.53
2018-06-24T08:39:40.837Z,101957.56
2018-06-24T08:42:09.729Z,101954.27
2018-06-24T08:44:38.612Z,101954.47
2018-06-24T08:47:07.467Z,101949.12
2018-06-24T08:49:36.334Z,101950.12
2018-06-24T08:52:05.398Z,101956.34
2018-06-24T08:54:34.281Z,101953.95
2018-06-24T08:57:03.219Z,101954.45
2018-06-24T08:59:32.080Z,101947.92
2018-06-24T09:02:01.012Z,101951.55
2018-06-24T09:04:29.885Z,101957.17
2018-06-24T09:06:58.745Z,101954.09
2018-06-24T09:09:27.644Z,101952.90
2018-06-24T09:11:56.534Z,101954.11
2018-06-24T09:14:25.425Z,101962.35
2018-06-24T09:16:54.364Z,101968.84
2018-06-24T09:19:23.190Z,101967.95
2018-06-24T09:21:52.094Z,101960.95
2018-06-24T09:24:21.094Z,101962.00
2018-06-24T09:26:50.190Z,101964.08
2018-06-24T09:29:19.059Z,101969.92
2018-06-24T09:31:47.893Z,101983.34
2018-06-24T09:34:16.767Z,101980.17
2018-06-24T09:36:45.685Z,101983.88
2018-06-24T09:39:14.572Z,101983.81
2018-06-24T09:41:43.426Z,101982.19
2018-06-24T09:44:12.293Z,101975.28
2018-06-24T09:46:41.215Z,101979.56
2018-06-24T09:49:10.082Z,101975.41
2018-06-24T09:51:38.972Z,101977.06
2018-06-24T09:54:07.889Z,101974.41
2018-06-24T09:56:36.869Z,101978.69
2018-06-24T09:59:05.808Z,101983.16
2018-06-24T10:01:34.707Z,101984.86
2018-06-24T10:04:03.554Z,101980.75
2018-06-24T10:06:32.456Z,101985.03
2018-06-24T10:09:56.019Z,101985.97
2018-06-24T10:12:27.193Z,101985.91
2018-06-24T10:14:56.049Z,101985.09
2018-06-24T10:17:24.968Z,101979.09
2018-06-24T10:19:53.827Z,101987.11
2018-06-24T10:22:22.724Z,101986.09
2018-06-24T10:24:51.631Z,101978.04
2018-06-24T10:27:23.559Z,101985.58
2018-06-24T10:29:52.444Z,101984.88
2018-06-24T10:32:21.275Z,101977.72
2018-06-24T10:34:50.261Z,101973.69
2018-06-24T10:37:19.141Z,101978.53
2018-06-24T10:39:48.011Z,101976.64
2018-06-24T10:42:16.902Z,101970.11
2018-06-24T10:44:45.731Z,101970.09
2018-06-24T10:47:14.652Z,101968.72
2018-06-24T10:49:43.500Z,101975.76
2018-06-24T10:52:13.524Z,101972.14
2018-06-24T10:54:42.395Z,101971.84
2018-06-24T10:57:11.270Z,101973.86
2018-06-24T10:59:40.187Z,101964.56
2018-06-24T11:02:09.180Z,101968.87
2018-06-24T11:04:37.947Z,101961.95
2018-06-24T11:07:06.904Z,101966.09
2018-06-24T11:09:35.834Z,101956.97
2018-06-24T11:12:04.920Z,101956.59
2018-06-24T11:14:42.431Z,101960.86
2018-06-24T11:17:11.589Z,101963.47
2018-06-24T11:19:40.461Z,101955.73
2018-06-24T11:22:09.391Z,101957.97
2018-06-24T11:24:38.204Z,101960.38
2018-06-24T11:27:07.134Z,101967.27
2018-06-24T11:29:36.039Z,101956.63
2018-06-24T11:32:04.942Z,101954.94
2018-06-24T11:34:38.958Z,101959.77
2018-06-24T11:37:02.860Z,101956.99
2018-06-24T11:39:31.644Z,101955.10
2018-06-24T11:42:00.558Z,101951.14
2018-06-24T11:44:29.531Z,101949.25
2018-06-24T11:46:58.498Z,101945.64
2018-06-24T11:49:27.396Z,101951.00
2018-06-24T11:51:56.240Z,101948.09
2018-06-24T11:54:25.271Z,101951.31
2018-06-24T11:56:55.669Z,101945.47
2018-06-24T11:59:24.555Z,101940.41
2018-06-24T12:01:53.479Z,101940.62
2018-06-24T12:04:22.432Z,101943.55
2018-06-24T12:06:51.359Z,101940.29
2018-06-24T12:09:20.269Z,101947.11
2018-06-24T12:11:49.263Z,101939.87
2018-06-24T12:14:20.693Z,101942.13
2018-06-24T12:16:51.367Z,101938.16
2018-06-24T12:19:18.544Z,101940.41
2018-06-24T12:21:50.552Z,101934.18
2018-06-24T12:24:19.605Z,101931.83
2018-06-24T12:26:48.538Z,101925.72
2018-06-24T12:29:17.508Z,101918.64
2018-06-24T12:31:46.327Z,101921.78
2018-06-24T12:34:15.262Z,101915.83
2018-06-24T12:36:44.211Z,101914.25
2018-06-24T12:39:20.557Z,101904.22
2018-06-24T12:41:49.405Z,101913.24
2018-06-24T12:44:18.327Z,101911.08
2018-06-24T12:46:47.189Z,101913.17
2018-06-24T12:49:16.139Z,101910.41
2018-06-24T12:51:45.151Z,101900.22
2018-06-24T12:54:14.039Z,101903.72
2018-06-24T12:56:42.907Z,101905.15
2018-06-24T12:59:12.101Z,101901.52
2018-06-24T13:01:46.877Z,101905.17
2018-06-24T13:04:15.741Z,101909.10
2018-06-24T13:06:44.726Z,101906.70
2018-06-24T13:09:13.623Z,101910.16
2018-06-24T13:11:42.721Z,101909.28
2018-06-24T13:14:11.462Z,101909.87
2018-06-24T13:16:40.450Z,101906.77
2018-06-24T13:19:09.367Z,101913.88
2018-06-24T13:21:38.316Z,101909.17
2018-06-24T13:24:07.534Z,101911.92
2018-06-24T13:26:36.400Z,101907.71
2018-06-24T13:29:05.485Z,101909.51
2018-06-24T13:31:34.405Z,101908.51
2018-06-24T13:34:06.297Z,101911.45
2018-06-24T13:36:32.327Z,101910.11
2018-06-24T13:39:03.692Z,101902.05
2018-06-24T13:41:30.485Z,101902.56
2018-06-24T13:43:59.333Z,101900.67
2018-06-24T13:46:28.280Z,101903.23
2018-06-24T13:48:57.186Z,101906.31
2018-06-24T13:51:26.188Z,101902.48
2018-06-24T13:53:55.142Z,101902.62
2018-06-24T13:56:24.414Z,101904.55
2018-06-24T13:58:53.411Z,101900.27
2018-06-24T14:01:22.299Z,101907.36
2018-06-24T14:03:51.263Z,101908.40
2018-06-24T14:06:20.214Z,101902.90
2018-06-24T14:08:51.772Z,101907.36
2018-06-24T14:11:20.767Z,101903.61
2018-06-24T14:13:49.650Z,101905.81
2018-06-24T14:16:18.558Z,101908.39
2018-06-24T14:18:47.533Z,101913.36
2018-06-24T14:21:16.445Z,101907.47
2018-06-24T14:23:45.330Z,101901.86
2018-06-24T14:26:14.295Z,101907.45
2018-06-24T14:28:43.119Z,101900.33
2018-06-24T14:31:12.132Z,101903.09
2018-06-24T14:33:41.038Z,101900.95
2018-06-24T14:36:09.970Z,101901.55
2018-06-24T14:38:39.092Z,101903.69
2018-06-24T14:41:07.963Z,101904.55
2018-06-24T14:43:36.946Z,101904.20
2018-06-24T14:46:06.032Z,101903.83
2018-06-24T14:48:35.019Z,101909.68
2018-06-24T14:52:00.641Z,101908.33
2018-06-24T14:54:28.028Z,101908.33
2018-06-24T14:56:56.974Z,101905.58
2018-06-24T14:59:26.159Z,101910.91
2018-06-24T15:01:55.023Z,101914.88
2018-06-24T15:04:23.963Z,101920.06
2018-06-24T15:06:52.892Z,101908.73
2018-06-24T15:09:22.492Z,101911.84
2018-06-24T15:11:51.507Z,101903.05
2018-06-24T15:14:23.725Z,101903.40
2018-06-24T15:16:52.719Z,101901.84
2018-06-24T15:19:21.722Z,101903.56
2018-06-24T15:21:50.612Z,101895.52
2018-06-24T15:24:19.505Z,101902.73
2018-06-24T15:26:48.403Z,101898.10
2018-06-24T15:29:17.300Z,101893.27
2018-06-24T15:31:46.237Z,101894.16
2018-06-24T15:34:15.226Z,101890.34
2018-06-24T15:36:51.505Z,101883.48
2018-06-24T15:39:20.437Z,101888.81
2018-06-24T15:41:49.322Z,101885.73
2018-06-24T15:44:18.260Z,101892.25
2018-06-24T15:46:47.224Z,101892.57
2018-06-24T15:49:16.194Z,101879.48
2018-06-24T15:51:45.256Z,101886.73
2018-06-24T15:54:14.126Z,101886.03
2018-06-24T15:56:43.077Z,101880.73
2018-06-24T15:59:12.320Z,101879.88
2018-06-24T16:01:41.276Z,101874.56
2018-06-24T16:04:10.184Z,101876.27
2018-06-24T16:06:39.052Z,101869.03
2018-06-24T16:09:10.326Z,101868.70
2018-06-24T16:11:39.329Z,101867.16
2018-06-24T16:14:08.181Z,101875.22
2018-06-24T16:16:37.780Z,101864.06
2018-06-24T16:19:07.498Z,101869.07
2018-06-24T16:21:36.539Z,101873.87
2018-06-24T16:24:05.423Z,101886.56
2018-06-24T16:26:34.417Z,101880.40
2018-06-24T16:29:03.307Z,101890.66
2018-06-24T16:31:32.223Z,101887.89
2018-06-24T16:34:01.156Z,101897.98
2018-06-24T16:36:30.032Z,101896.73
2018-06-24T16:38:58.918Z,101889.17
2018-06-24T16:41:30.903Z,101894.13
2018-06-24T16:43:59.817Z,101893.06
2018-06-24T16:46:28.685Z,101892.73
2018-06-24T16:49:00.315Z,101891.84
2018-06-24T16:51:29.274Z,101891.66
2018-06-24T16:53:58.147Z,101901.05
2018-06-24T16:56:27.016Z,101898.36
2018-06-24T16:59:03.210Z,101897.38
2018-06-24T17:01:32.322Z,101897.22
2018-06-24T17:04:01.230Z,101894.12
2018-06-24T17:06:30.162Z,101887.92
2018-06-24T17:08:59.122Z,101891.84
2018-06-24T17:11:28.002Z,101886.20
2018-06-24T17:13:56.915Z,101894.00
2018-06-24T17:16:25.888Z,101899.91
2018-06-24T17:18:54.890Z,101902.92
2018-06-24T17:21:23.710Z,101903.93
2018-06-24T17:23:55.781Z,101908.45
2018-06-24T17:26:26.085Z,101905.04
2018-06-24T17:28:58.561Z,101903.27
2018-06-24T17:31:27.462Z,101901.59
2018-06-24T17:33:56.724Z,101898.45
2018-06-24T17:36:25.633Z,101902.97
2018-06-24T17:38:54.523Z,101896.82
2018-06-24T17:41:25.628Z,101896.82
2018-06-24T17:43:52.302Z,101904.09
2018-06-24T17:46:21.274Z,101899.21
2018-06-24T17:48:50.202Z,101894.60
2018-06-24T17:51:19.125Z,101901.05
2018-06-24T17:53:47.995Z,101894.70
2018-06-24T17:56:16.901Z,101890.17
2018-06-24T17:58:45.817Z,101890.02
2018-06-24T18:01:14.711Z,101889.50
2018-06-24T18:03:43.542Z,101886.71
2018-06-24T18:06:12.743Z,101888.45
2018-06-24T18:08:44.182Z,101889.41
2018-06-24T18:11:13.226Z,101896.17
2018-06-24T18:13:42.156Z,101894.12
2018-06-24T18:16:11.139Z,101892.27
2018-06-24T18:18:39.935Z,101892.61
2018-06-24T18:21:08.911Z,101888.45
2018-06-24T18:23:37.797Z,101888.94
2018-06-24T18:26:06.690Z,101886.50
2018-06-24T18:28:38.002Z,101881.58
2018-06-24T18:31:08.624Z,101881.02
2018-06-24T18:33:37.670Z,101876.56
2018-06-24T18:36:06.635Z,101872.58
2018-06-24T18:38:35.569Z,101873.75
2018-06-24T18:41:04.557Z,101868.14
2018-06-24T18:43:33.408Z,101865.91
2018-06-24T18:46:02.351Z,101865.40
2018-06-24T18:48:31.408Z,101854.27
2018-06-24T18:51:00.318Z,101868.70
2018-06-24T18:53:29.275Z,101862.20
2018-06-24T18:55:58.239Z,101866.16
2018-06-24T18:58:27.103Z,101868.05
2018-06-24T19:00:56.084Z,101862.77
2018-06-24T19:03:25.031Z,101863.44
2018-06-24T19:05:53.889Z,101864.69
2018-06-24T19:08:25.720Z,101865.05
2018-06-24T19:10:54.618Z,101865.31
2018-06-24T19:13:23.543Z,101877.07
2018-06-24T19:15:52.490Z,101880.22
2018-06-24T19:18:21.451Z,101879.55
2018-06-24T19:20:50.351Z,101876.11
2018-06-24T19:23:19.251Z,101882.09
2018-06-24T19:25:48.194Z,101874.80
2018-06-24T19:28:16.984Z,101878.91
2018-06-24T19:30:52.160Z,101882.19
2018-06-24T19:33:23.483Z,101881.16
2018-06-24T19:35:52.389Z,101878.72
2018-06-24T19:38:21.203Z,101884.15
2018-06-24T19:40:50.052Z,101884.94
2018-06-24T19:43:18.912Z,101887.02
2018-06-24T19:45:47.807Z,101884.78
2018-06-24T19:48:16.663Z,101897.05
2018-06-24T19:50:45.820Z,101911.10
2018-06-24T19:53:14.638Z,101902.09
2018-06-24T19:55:43.541Z,101903.61
2018-06-24T19:58:12.431Z,101906.33
2018-06-24T20:00:41.371Z,101911.89
2018-06-24T20:03:10.405Z,101918.88
2018-06-24T20:05:39.245Z,101909.78
2018-06-24T20:08:08.136Z,101910.05
2018-06-24T20:10:36.999Z,101904.87
2018-06-24T20:13:06.050Z,101916.09
2018-06-24T20:15:34.964Z,101914.30
2018-06-24T20:18:03.887Z,101914.30
2018-06-24T20:20:32.758Z,101912.92
2018-06-24T20:23:01.657Z,101915.01
2018-06-24T20:25:30.549Z,101913.55
2018-06-24T20:27:59.432Z,101909.80
2018-06-24T20:30:28.351Z,101914.96
2018-06-24T20:32:57.205Z,101922.47
2018-06-24T20:35:43.684Z,101921.39
2018-06-24T20:38:14.285Z,101923.62
2018-06-24T20:40:43.294Z,101926.87
2018-06-24T20:43:12.184Z,101919.67
2018-06-24T20:45:41.117Z,101916.39
2018-06-24T20:48:09.993Z,101915.88
2018-06-24T20:50:38.913Z,101918.37
2018-06-24T20:53:07.823Z,101912.36
2018-06-24T20:55:36.797Z,101917.83
2018-06-24T20:58:05.765Z,101918.37
2018-06-24T21:00:34.706Z,101917.50
2018-06-24T21:03:03.593Z,101922.86
2018-06-24T21:05:32.478Z,101922.26
2018-06-24T21:08:01.382Z,101930.47
2018-06-24T21:10:30.273Z,101934.45
2018-06-24T21:12:59.416Z,101929.91
2018-06-24T21:15:28.328Z,101929.96
2018-06-24T21:18:00.512Z,101930.47
2018-06-24T21:20:29.473Z,101926.41
2018-06-24T21:22:58.427Z,101933.25
2018-06-24T21:25:27.313Z,101934.72
2018-06-24T21:27:56.261Z,101932.23
2018-06-24T21:30:25.299Z,101929.36
2018-06-24T21:32:54.212Z,101936.09
2018-06-24T21:35:23.081Z,101934.72
2018-06-24T21:37:52.006Z,101942.17
2018-06-24T21:40:20.961Z,101938.46
2018-06-24T21:42:49.853Z,101937.66
2018-06-24T21:45:18.994Z,101930.66
2018-06-24T21:47:47.911Z,101926.23
2018-06-24T21:50:16.803Z,101925.88
2018-06-24T21:52:45.806Z,101915.94
2018-06-24T21:55:14.835Z,101923.28
2018-06-24T21:57:43.572Z,101922.41
2018-06-24T22:00:12.591Z,101926.05
2018-06-24T22:02:47.399Z,101925.01
2018-06-24T22:05:18.378Z,101925.01
2018-06-24T22:07:45.188Z,101918.16
2018-06-24T22:10:14.153Z,101918.45
2018-06-24T22:12:43.102Z,101913.23
2018-06-24T22:15:11.966Z,101923.98
2018-06-24T22:17:40.867Z,101934.78
2018-06-24T22:20:12.813Z,101931.00
2018-06-24T22:22:43.787Z,101935.03
2018-06-24T22:25:12.761Z,101925.20
2018-06-24T22:27:41.712Z,101918.82
2018-06-24T22:30:10.616Z,101920.78
2018-06-24T22:32:39.661Z,101919.38
2018-06-24T22:35:08.551Z,101920.23
2018-06-24T22:37:37.481Z,101915.92
2018-06-24T22:40:06.414Z,101908.72
2018-06-24T22:42:35.323Z,101905.23
2018-06-24T22:45:04.335Z,101905.53
2018-06-24T22:47:33.374Z,101907.47
2018-06-24T22:50:02.308Z,101910.50
2018-06-24T22:52:31.247Z,101907.67
2018-06-24T22:55:00.234Z,101906.88
2018-06-24T22:57:29.182Z,101909.78
2018-06-24T23:00:16.172Z,101913.73
2018-06-24T23:02:45.696Z,101907.95
2018-06-24T23:05:20.524Z,101914.80
2018-06-24T23:07:49.504Z,101928.49
2018-06-24T23:10:18.470Z,101924.03
2018-06-24T23:12:47.321Z,101931.70
2018-06-24T23:15:16.214Z,101928.76
2018-06-24T23:17:45.148Z,101931.73
2018-06-24T23:20:14.095Z,101934.44
2018-06-24T23:22:42.985Z,101932.85
2018-06-24T23:25:11.940Z,101921.91
2018-06-24T23:27:46.995Z,101919.83
2018-06-24T23:30:15.944Z,101912.67
2018-06-24T23:32:44.831Z,101918.75
2018-06-24T23:35:13.821Z,101918.34
2018-06-24T23:37:42.736Z,101927.56
2018-06-24T23:40:11.747Z,101927.86
2018-06-24T23:42:40.691Z,101922.98
2018-06-24T23:45:09.587Z,101924.55
2018-06-24T23:47:38.468Z,101921.95
2018-06-24T23:50:07.334Z,101921.59
2018-06-24T23:52:36.290Z,101924.83
2018-06-24T23:55:05.682Z,101925.98
2018-06-24T23:57:34.622Z,101920.79
